Time;durP1;ratioP1;P1;durP2;ratioP2;P2;SDS_P1;SDS_P2;PMS_P1;PMS_P2;Temp;Humidity;BMP_temperature;BMP_pressure;BME280_temperature;BME280_humidity;BME280_pressure;Samples;Min_cycle;Max_cycle;Signal;HPM_P1;HPM_P2
2021/06/30 00:02:28;;;;;;;;;;;28.20;55.00;;;;;;5133786;27;19976;-59
2021/06/30 00:04:59;;;;;;;;;;;28.20;55.00;;;;;;5133743;27;20336;-58
2021/06/30 00:07:26;;;;;;;;;;;28.20;55.00;;;;;;5133485;27;19930;-59
2021/06/30 00:09:59;;;;;;;;;;;28.20;55.00;;;;;;5133637;27;19924;-59
2021/06/30 00:12:31;;;;;;;;;;;28.20;55.00;;;;;;5133897;27;20010;-59
2021/06/30 00:15:12;;;;;;;;;;;28.20;55.00;;;;;;5117481;27;19923;-59
2021/06/30 00:17:46;;;;;;;;;;;28.20;55.00;;;;;;5120473;27;20018;-59
2021/06/30 00:20:18;;;;;;;;;;;28.20;55.00;;;;;;5134509;27;19989;-59
2021/06/30 00:22:50;;;;;;;;;;;28.10;54.90;;;;;;5131369;27;19973;-59
2021/06/30 00:25:22;;;;;;;;;;;28.10;54.90;;;;;;5132675;27;19976;-59
2021/06/30 00:27:54;;;;;;;;;;;28.20;54.90;;;;;;5116253;27;20260;-59
2021/06/30 00:30:26;;;;;;;;;;;28.20;54.90;;;;;;5116251;27;19928;-59
2021/06/30 00:32:58;;;;;;;;;;;28.10;54.90;;;;;;5117467;27;19923;-59
2021/06/30 00:35:30;;;;;;;;;;;28.10;54.90;;;;;;5132325;27;20019;-59
2021/06/30 00:38:02;;;;;;;;;;;28.10;54.80;;;;;;5135686;27;19971;-59
2021/06/30 00:40:34;;;;;;;;;;;28.10;54.80;;;;;;5131916;27;19924;-59
2021/06/30 00:43:06;;;;;;;;;;;28.10;54.80;;;;;;5133838;27;20371;-59
2021/06/30 00:45:38;;;;;;;;;;;28.10;54.80;;;;;;5115457;27;19924;-59
2021/06/30 00:48:09;;;;;;;;;;;28.10;54.80;;;;;;5116221;27;19931;-59
2021/06/30 00:50:41;;;;;;;;;;;28.10;54.80;;;;;;5116358;27;19955;-59
2021/06/30 00:53:13;;;;;;;;;;;28.10;54.70;;;;;;5132289;27;20349;-58
2021/06/30 00:55:49;;;;;;;;;;;28.20;54.80;;;;;;5132475;27;19973;-59
2021/06/30 00:58:21;;;;;;;;;;;28.10;54.80;;;;;;5133760;27;20329;-59
2021/06/30 01:00:53;;;;;;;;;;;28.10;54.70;;;;;;5132805;27;19927;-59
2021/06/30 01:03:25;;;;;;;;;;;28.10;54.70;;;;;;5132927;27;19970;-59
2021/06/30 01:05:57;;;;;;;;;;;28.10;54.70;;;;;;5132565;27;19972;-59
2021/06/30 01:08:29;;;;;;;;;;;28.10;54.70;;;;;;5132533;27;19923;-59
2021/06/30 01:11:01;;;;;;;;;;;28.10;54.70;;;;;;5133394;27;19927;-58
2021/06/30 01:13:33;;;;;;;;;;;28.10;54.70;;;;;;5134134;27;20024;-58
2021/06/30 01:16:05;;;;;;;;;;;28.20;54.80;;;;;;5132434;27;19962;-58
2021/06/30 01:18:37;;;;;;;;;;;28.10;55.30;;;;;;5131975;27;19923;-58
2021/06/30 01:21:10;;;;;;;;;;;28.20;54.70;;;;;;5125360;27;20006;-59
2021/06/30 01:23:42;;;;;;;;;;;28.10;54.70;;;;;;5116423;27;19924;-59
2021/06/30 01:26:14;;;;;;;;;;;28.10;54.70;;;;;;5132970;27;19927;-59
2021/06/30 01:28:46;;;;;;;;;;;28.10;54.70;;;;;;5131516;27;19923;-59
2021/06/30 01:31:18;;;;;;;;;;;28.10;54.70;;;;;;5133368;27;20390;-59
2021/06/30 01:33:50;;;;;;;;;;;28.10;54.70;;;;;;5133416;27;20243;-59
2021/06/30 01:36:22;;;;;;;;;;;28.10;54.60;;;;;;5118808;27;19962;-59
2021/06/30 01:38:54;;;;;;;;;;;28.10;54.60;;;;;;5132573;27;19959;-59
2021/06/30 01:41:26;;;;;;;;;;;28.10;54.60;;;;;;5131552;27;20417;-59
2021/06/30 01:43:57;;;;;;;;;;;28.10;54.60;;;;;;5132526;27;19923;-59
2021/06/30 01:46:29;;;;;;;;;;;28.10;54.60;;;;;;5134225;27;19946;-59
2021/06/30 01:49:02;;;;;;;;;;;28.10;54.60;;;;;;5130363;27;20002;-59
2021/06/30 01:51:35;;;;;;;;;;;28.10;54.60;;;;;;5130660;27;19945;-59
2021/06/30 01:54:13;;;;;;;;;;;28.10;54.60;;;;;;5131420;27;19966;-59
2021/06/30 01:56:47;;;;;;;;;;;28.10;54.50;;;;;;5131591;27;19950;-59
2021/06/30 01:59:19;;;;;;;;;;;28.10;54.60;;;;;;5133934;27;20328;-59
2021/06/30 02:01:51;;;;;;;;;;;28.10;54.50;;;;;;5131135;27;19923;-59
2021/06/30 02:04:23;;;;;;;;;;;28.10;54.50;;;;;;5117845;27;19969;-59
2021/06/30 02:06:54;;;;;;;;;;;28.10;54.60;;;;;;5128276;27;20320;-59
2021/06/30 02:09:26;;;;;;;;;;;28.10;54.50;;;;;;5115104;27;19924;-59
2021/06/30 02:11:58;;;;;;;;;;;28.10;54.50;;;;;;5133872;27;19924;-59
2021/06/30 02:14:30;;;;;;;;;;;28.10;54.50;;;;;;5131009;27;19927;-59
2021/06/30 02:17:02;;;;;;;;;;;28.10;54.50;;;;;;5114891;27;19949;-59
2021/06/30 02:19:34;;;;;;;;;;;28.10;54.50;;;;;;5129807;27;20398;-59
2021/06/30 02:22:06;;;;;;;;;;;28.10;54.50;;;;;;5130166;28;19923;-59
2021/06/30 02:24:38;;;;;;;;;;;28.10;54.50;;;;;;5131573;28;19924;-59
2021/06/30 02:27:10;;;;;;;;;;;28.10;54.50;;;;;;5130840;28;19923;-59
2021/06/30 02:29:43;;;;;;;;;;;28.10;54.50;;;;;;5131361;28;19924;-58
2021/06/30 02:32:13;;;;;;;;;;;28.10;54.50;;;;;;5131945;28;19923;-58
2021/06/30 02:34:44;;;;;;;;;;;28.10;54.50;;;;;;5131112;28;20348;-58
2021/06/30 02:37:16;;;;;;;;;;;28.10;54.50;;;;;;5125717;28;19970;-58
2021/06/30 02:39:48;;;;;;;;;;;28.10;54.50;;;;;;5131874;28;19923;-58
2021/06/30 02:42:20;;;;;;;;;;;28.10;54.50;;;;;;5129717;28;20379;-58
2021/06/30 02:44:52;;;;;;;;;;;28.10;54.50;;;;;;5112201;28;20375;-58
2021/06/30 02:47:24;;;;;;;;;;;28.10;54.50;;;;;;5129837;28;19970;-58
2021/06/30 02:49:56;;;;;;;;;;;28.10;54.50;;;;;;5123376;28;19924;-59
2021/06/30 02:52:23;;;;;;;;;;;28.10;54.50;;;;;;5123153;28;20389;-59
2021/06/30 02:54:55;;;;;;;;;;;28.10;54.50;;;;;;5132000;28;19924;-59
2021/06/30 02:57:27;;;;;;;;;;;28.10;54.50;;;;;;5124433;28;19977;-59
2021/06/30 02:59:59;;;;;;;;;;;28.10;54.50;;;;;;5122708;28;20007;-59
2021/06/30 03:02:31;;;;;;;;;;;28.10;54.50;;;;;;5129529;28;19923;-59
2021/06/30 03:05:03;;;;;;;;;;;28.10;54.50;;;;;;5131819;28;20329;-59
2021/06/30 03:07:35;;;;;;;;;;;28.10;54.50;;;;;;5131927;28;20333;-59
2021/06/30 03:10:08;;;;;;;;;;;28.10;54.40;;;;;;5131872;28;20340;-58
2021/06/30 03:12:40;;;;;;;;;;;28.10;54.40;;;;;;5129534;28;20002;-58
2021/06/30 03:15:14;;;;;;;;;;;28.10;54.40;;;;;;5130799;28;19923;-59
2021/06/30 03:17:46;;;;;;;;;;;28.00;54.30;;;;;;5133699;27;20018;-59
2021/06/30 03:20:18;;;;;;;;;;;28.00;54.30;;;;;;5134923;27;20371;-58
2021/06/30 03:22:50;;;;;;;;;;;28.10;54.40;;;;;;5133074;27;20397;-58
2021/06/30 03:25:22;;;;;;;;;;;28.00;54.30;;;;;;5135951;27;19974;-58
2021/06/30 03:27:54;;;;;;;;;;;28.10;54.30;;;;;;5133127;27;19924;-58
2021/06/30 03:30:26;;;;;;;;;;;28.10;54.30;;;;;;5134386;27;19927;-58
2021/06/30 03:32:58;;;;;;;;;;;28.10;54.30;;;;;;5136975;27;20018;-58
2021/06/30 03:35:30;;;;;;;;;;;28.10;54.30;;;;;;5135007;27;20267;-58
2021/06/30 03:38:02;;;;;;;;;;;28.10;54.30;;;;;;5134009;27;19962;-58
2021/06/30 03:40:34;;;;;;;;;;;28.10;54.30;;;;;;5133935;27;19976;-58
2021/06/30 03:43:06;;;;;;;;;;;28.10;54.20;;;;;;5134157;27;20363;-58
2021/06/30 03:45:38;;;;;;;;;;;28.10;54.20;;;;;;5135485;27;20364;-59
2021/06/30 03:48:10;;;;;;;;;;;28.10;54.20;;;;;;5131602;27;19923;-59
2021/06/30 03:50:42;;;;;;;;;;;28.10;54.10;;;;;;5120209;27;19968;-59
2021/06/30 03:53:14;;;;;;;;;;;28.10;54.10;;;;;;5133319;27;19923;-59
2021/06/30 03:55:46;;;;;;;;;;;28.10;54.10;;;;;;5119511;27;19973;-58
2021/06/30 03:58:17;;;;;;;;;;;28.10;54.10;;;;;;5134837;27;19967;-59
2021/06/30 04:00:49;;;;;;;;;;;28.10;54.00;;;;;;5134921;27;20328;-59
2021/06/30 04:03:21;;;;;;;;;;;28.10;54.00;;;;;;5135593;27;19924;-59
2021/06/30 04:05:53;;;;;;;;;;;28.10;53.90;;;;;;5119311;27;19924;-59
2021/06/30 04:08:25;;;;;;;;;;;28.20;53.90;;;;;;5133362;27;19954;-59
2021/06/30 04:10:57;;;;;;;;;;;28.20;53.90;;;;;;5133390;27;19976;-58
2021/06/30 04:13:29;;;;;;;;;;;28.20;53.90;;;;;;5117166;27;20064;-58
2021/06/30 04:16:00;;;;;;;;;;;28.20;53.80;;;;;;5118327;27;20337;-58
2021/06/30 04:18:32;;;;;;;;;;;28.20;53.70;;;;;;5134301;27;19924;-58
2021/06/30 04:21:04;;;;;;;;;;;28.30;53.70;;;;;;5135824;27;19928;-58
2021/06/30 04:23:36;;;;;;;;;;;28.30;53.50;;;;;;5135708;27;19927;-59
2021/06/30 04:26:08;;;;;;;;;;;28.30;53.40;;;;;;5133469;27;20626;-59
2021/06/30 04:28:39;;;;;;;;;;;28.40;53.30;;;;;;5132637;27;19924;-58
2021/06/30 04:31:11;;;;;;;;;;;28.40;53.30;;;;;;5117916;27;19923;-59
2021/06/30 04:33:43;;;;;;;;;;;28.40;53.30;;;;;;5133883;27;19927;-59
2021/06/30 04:36:15;;;;;;;;;;;28.40;53.30;;;;;;5133891;27;20383;-59
2021/06/30 04:38:47;;;;;;;;;;;28.40;53.20;;;;;;5133302;27;19923;-59
2021/06/30 04:41:19;;;;;;;;;;;28.40;53.10;;;;;;5117254;27;19927;-59
2021/06/30 04:43:51;;;;;;;;;;;28.40;53.10;;;;;;5116039;27;20007;-59
2021/06/30 04:46:23;;;;;;;;;;;28.50;53.10;;;;;;5133520;27;19927;-59
2021/06/30 04:48:55;;;;;;;;;;;28.50;53.10;;;;;;5133685;27;20118;-59
2021/06/30 04:51:27;;;;;;;;;;;28.50;53.10;;;;;;5135043;27;19924;-59
2021/06/30 04:53:58;;;;;;;;;;;28.50;53.10;;;;;;5116129;27;19924;-59
2021/06/30 04:56:39;;;;;;;;;;;28.50;53.00;;;;;;5116508;27;19968;-59
2021/06/30 04:59:11;;;;;;;;;;;28.50;53.00;;;;;;5132225;27;19923;-59
2021/06/30 05:01:43;;;;;;;;;;;28.50;53.00;;;;;;5100974;28;19970;-59
2021/06/30 05:04:16;;;;;;;;;;;28.50;53.00;;;;;;5131557;27;19927;-59
2021/06/30 05:06:48;;;;;;;;;;;28.60;52.90;;;;;;5129882;27;19968;-59
2021/06/30 05:09:20;;;;;;;;;;;28.60;53.50;;;;;;5130981;27;19998;-58
2021/06/30 05:11:52;;;;;;;;;;;28.60;52.90;;;;;;5131053;27;19982;-58
2021/06/30 05:14:23;;;;;;;;;;;28.70;52.80;;;;;;5132602;27;19923;-58
2021/06/30 05:16:56;;;;;;;;;;;28.70;52.70;;;;;;5132377;27;19935;-58
2021/06/30 05:19:29;;;;;;;;;;;28.70;52.60;;;;;;5133616;27;20420;-59
2021/06/30 05:22:02;;;;;;;;;;;28.80;53.20;;;;;;5130848;27;19939;-59
2021/06/30 05:24:34;;;;;;;;;;;28.80;52.40;;;;;;5130903;27;19927;-59
2021/06/30 05:27:06;;;;;;;;;;;28.80;52.40;;;;;;5131994;27;19935;-59
2021/06/30 05:29:38;;;;;;;;;;;28.80;52.40;;;;;;5132264;27;19962;-58
2021/06/30 05:32:10;;;;;;;;;;;28.80;52.40;;;;;;5131969;27;20030;-58
2021/06/30 05:34:42;;;;;;;;;;;28.80;52.40;;;;;;5133370;27;19976;-58
2021/06/30 05:37:14;;;;;;;;;;;28.90;52.50;;;;;;5129202;27;19955;-59
2021/06/30 05:39:46;;;;;;;;;;;28.80;52.40;;;;;;5118975;27;19933;-58
2021/06/30 05:42:17;;;;;;;;;;;28.90;52.50;;;;;;5129585;27;20359;-59
2021/06/30 05:44:49;;;;;;;;;;;28.80;52.40;;;;;;5131674;27;19955;-59
2021/06/30 05:47:21;;;;;;;;;;;28.90;52.40;;;;;;5122162;27;19977;-59
2021/06/30 05:49:53;;;;;;;;;;;28.90;52.50;;;;;;5115980;27;19967;-59
2021/06/30 05:52:25;;;;;;;;;;;28.90;52.40;;;;;;5124582;27;19949;-59
2021/06/30 05:54:57;;;;;;;;;;;28.90;52.40;;;;;;5111901;28;19924;-58
2021/06/30 05:57:29;;;;;;;;;;;28.90;52.30;;;;;;5110609;28;19924;-60
2021/06/30 06:00:02;;;;;;;;;;;28.90;52.30;;;;;;5111180;28;20014;-59
2021/06/30 06:02:34;;;;;;;;;;;28.90;52.40;;;;;;5110464;28;19923;-58
2021/06/30 06:05:07;;;;;;;;;;;28.90;52.30;;;;;;5111443;28;19923;-59
2021/06/30 06:07:39;;;;;;;;;;;28.90;52.30;;;;;;5109789;28;20349;-59
2021/06/30 06:10:11;;;;;;;;;;;28.90;52.40;;;;;;5111694;28;20007;-59
2021/06/30 06:12:43;;;;;;;;;;;28.90;52.40;;;;;;5111746;28;20376;-59
2021/06/30 06:15:15;;;;;;;;;;;28.90;52.40;;;;;;5109412;28;19924;-59
2021/06/30 06:17:47;;;;;;;;;;;29.00;52.40;;;;;;5110800;28;19927;-59
2021/06/30 06:20:19;;;;;;;;;;;29.00;52.40;;;;;;5112181;28;19992;-59
2021/06/30 06:22:51;;;;;;;;;;;29.00;52.40;;;;;;5103727;28;19977;-60
2021/06/30 06:25:22;;;;;;;;;;;29.00;52.40;;;;;;5102688;28;20010;-60
2021/06/30 06:27:54;;;;;;;;;;;29.00;52.40;;;;;;5108878;28;19924;-58
2021/06/30 06:30:29;;;;;;;;;;;29.00;52.30;;;;;;5112944;28;20424;-58
2021/06/30 06:33:01;;;;;;;;;;;29.00;52.30;;;;;;5113122;28;19992;-59
2021/06/30 06:35:35;;;;;;;;;;;29.00;52.30;;;;;;5106889;28;20288;-59
2021/06/30 06:38:07;;;;;;;;;;;29.00;52.40;;;;;;5099295;28;19924;-59
2021/06/30 06:40:39;;;;;;;;;;;29.00;52.40;;;;;;5109149;28;19955;-59
2021/06/30 06:43:11;;;;;;;;;;;29.00;52.40;;;;;;5109472;28;19973;-52
2021/06/30 06:45:43;;;;;;;;;;;29.00;52.50;;;;;;5113312;28;20556;-59
2021/06/30 06:48:10;;;;;;;;;;;29.00;52.50;;;;;;5111479;28;19931;-59
2021/06/30 06:50:42;;;;;;;;;;;29.00;52.50;;;;;;5110796;28;20332;-59
2021/06/30 06:53:09;;;;;;;;;;;29.00;52.40;;;;;;5114163;28;19924;-59
2021/06/30 06:55:41;;;;;;;;;;;29.00;52.40;;;;;;5097950;28;19924;-59
2021/06/30 06:58:13;;;;;;;;;;;29.00;52.30;;;;;;5113733;28;19955;-59
2021/06/30 07:00:45;;;;;;;;;;;29.00;52.40;;;;;;5115512;28;19939;-58
2021/06/30 07:03:17;;;;;;;;;;;29.00;52.30;;;;;;5115035;28;20006;-59
2021/06/30 07:05:48;;;;;;;;;;;29.10;52.30;;;;;;5113693;28;19924;-58
2021/06/30 07:08:20;;;;;;;;;;;29.10;52.30;;;;;;5115155;28;19978;-59
2021/06/30 07:10:52;;;;;;;;;;;29.10;52.30;;;;;;5116710;28;19973;-59
2021/06/30 07:13:24;;;;;;;;;;;29.10;52.20;;;;;;5113770;28;19924;-59
2021/06/30 07:15:56;;;;;;;;;;;29.10;52.20;;;;;;5112595;28;20376;-59
2021/06/30 07:18:28;;;;;;;;;;;29.10;52.20;;;;;;5100999;27;20272;-60
2021/06/30 07:21:03;;;;;;;;;;;29.10;52.20;;;;;;5115439;27;19924;-59
2021/06/30 07:23:35;;;;;;;;;;;29.10;52.20;;;;;;5116427;28;19963;-59
2021/06/30 07:26:09;;;;;;;;;;;29.10;52.20;;;;;;5115056;28;19924;-59
2021/06/30 07:28:41;;;;;;;;;;;29.10;52.30;;;;;;5114511;28;20396;-59
2021/06/30 07:31:13;;;;;;;;;;;29.00;52.20;;;;;;5115123;27;20014;-59
2021/06/30 07:33:45;;;;;;;;;;;29.00;52.30;;;;;;5112610;28;19978;-59
2021/06/30 07:36:17;;;;;;;;;;;29.00;52.30;;;;;;5103710;28;20407;-59
2021/06/30 07:38:49;;;;;;;;;;;29.00;52.40;;;;;;5097090;28;19932;-59
2021/06/30 07:41:21;;;;;;;;;;;29.00;52.40;;;;;;5097105;28;19928;-60
2021/06/30 07:43:53;;;;;;;;;;;28.90;52.40;;;;;;5115095;28;19970;-59
2021/06/30 07:46:20;;;;;;;;;;;28.90;52.40;;;;;;5114862;28;19950;-59
2021/06/30 07:48:48;;;;;;;;;;;28.90;52.40;;;;;;5113652;28;19973;-59
2021/06/30 07:51:15;;;;;;;;;;;28.90;52.40;;;;;;5115033;28;20353;-59
2021/06/30 07:53:43;;;;;;;;;;;28.90;52.40;;;;;;5116490;27;19927;-59
2021/06/30 07:56:11;;;;;;;;;;;28.90;52.40;;;;;;5132842;27;19923;-59
2021/06/30 07:58:39;;;;;;;;;;;28.90;52.30;;;;;;5133258;27;20256;-59
2021/06/30 08:01:06;;;;;;;;;;;29.00;52.30;;;;;;5134277;27;19927;-59
2021/06/30 08:03:33;;;;;;;;;;;29.00;52.30;;;;;;5112619;27;20370;-59
2021/06/30 08:06:00;;;;;;;;;;;29.00;52.30;;;;;;5133373;27;20276;-59
2021/06/30 08:08:27;;;;;;;;;;;29.00;52.30;;;;;;5118008;27;19924;-59
2021/06/30 08:10:54;;;;;;;;;;;29.00;52.30;;;;;;5134476;27;19924;-59
2021/06/30 08:13:22;;;;;;;;;;;29.00;52.20;;;;;;5135759;27;19944;-58
2021/06/30 08:15:49;;;;;;;;;;;29.00;52.20;;;;;;5125949;27;19970;-59
2021/06/30 08:18:16;;;;;;;;;;;29.00;52.20;;;;;;5122383;27;20463;-60
2021/06/30 08:20:48;;;;;;;;;;;29.00;52.10;;;;;;5131909;27;20383;-59
2021/06/30 08:23:15;;;;;;;;;;;29.10;52.10;;;;;;5132974;27;19949;-60
2021/06/30 08:25:45;;;;;;;;;;;29.10;52.10;;;;;;5132013;27;20260;-59
2021/06/30 08:28:18;;;;;;;;;;;29.10;52.00;;;;;;5131554;27;19931;-59
2021/06/30 08:30:45;;;;;;;;;;;29.10;52.00;;;;;;5132197;27;19929;-59
2021/06/30 08:33:12;;;;;;;;;;;29.10;52.00;;;;;;5131962;27;20267;-59
2021/06/30 08:35:39;;;;;;;;;;;29.10;51.90;;;;;;5133729;27;20292;-59
2021/06/30 08:38:07;;;;;;;;;;;29.10;51.90;;;;;;5133135;27;20260;-60
2021/06/30 08:40:34;;;;;;;;;;;29.10;51.80;;;;;;5115780;27;20371;-59
2021/06/30 08:43:01;;;;;;;;;;;29.10;51.80;;;;;;5133481;27;19923;-59
2021/06/30 08:45:29;;;;;;;;;;;29.10;51.80;;;;;;5115489;27;19924;-59
2021/06/30 08:47:58;;;;;;;;;;;29.10;51.70;;;;;;5115040;27;19927;-59
2021/06/30 08:50:25;;;;;;;;;;;29.10;51.70;;;;;;5133344;27;19954;-59
2021/06/30 08:52:52;;;;;;;;;;;29.10;51.60;;;;;;5134354;27;19931;-59
2021/06/30 08:55:35;;;;;;;;;;;29.20;51.50;;;;;;5134393;27;20002;-59
2021/06/30 08:58:02;;;;;;;;;;;29.20;51.50;;;;;;5132810;27;20452;-59
2021/06/30 09:00:29;;;;;;;;;;;29.20;51.50;;;;;;5117052;27;20343;-59
2021/06/30 09:02:59;;;;;;;;;;;29.20;51.50;;;;;;5132082;27;20022;-59
2021/06/30 09:07:56;;;;;;;;;;;29.20;51.40;;;;;;5119829;27;19924;-59
2021/06/30 09:10:32;;;;;;;;;;;29.20;51.40;;;;;;5112347;27;19923;-59
2021/06/30 09:13:00;;;;;;;;;;;29.20;51.40;;;;;;5132414;27;19928;-59
2021/06/30 09:15:32;;;;;;;;;;;29.20;51.30;;;;;;5132199;27;20026;-59
2021/06/30 09:18:11;;;;;;;;;;;29.20;51.40;;;;;;5133241;27;19923;-59
2021/06/30 09:20:38;;;;;;;;;;;29.20;51.30;;;;;;5133744;27;19931;-59
2021/06/30 09:23:05;;;;;;;;;;;29.20;51.40;;;;;;5131184;27;19923;-59
2021/06/30 09:25:34;;;;;;;;;;;29.20;51.30;;;;;;5132069;27;19928;-59
2021/06/30 09:28:18;;;;;;;;;;;29.20;51.30;;;;;;5134208;27;19972;-59
2021/06/30 09:31:07;;;;;;;;;;;29.20;51.20;;;;;;5133197;27;19939;-59
2021/06/30 09:33:44;;;;;;;;;;;29.20;51.20;;;;;;5130865;27;19923;-59
2021/06/30 09:36:13;;;;;;;;;;;29.20;51.10;;;;;;5121783;27;19924;-59
2021/06/30 09:38:43;;;;;;;;;;;29.30;51.10;;;;;;5129396;27;20354;-59
2021/06/30 09:41:38;;;;;;;;;;;29.30;51.10;;;;;;5132462;27;19970;-59
2021/06/30 09:44:06;;;;;;;;;;;29.30;51.00;;;;;;5128830;27;19976;-58
2021/06/30 09:46:34;;;;;;;;;;;29.30;51.00;;;;;;5130192;27;19972;-58
2021/06/30 09:49:02;;;;;;;;;;;29.30;51.00;;;;;;5130141;27;20398;-58
2021/06/30 09:51:30;;;;;;;;;;;29.30;51.00;;;;;;5112496;27;19972;-57
2021/06/30 09:54:14;;;;;;;;;;;29.30;50.90;;;;;;5132968;27;20349;-58
2021/06/30 09:56:57;;;;;;;;;;;29.30;51.00;;;;;;5098892;28;19984;-57
2021/06/30 09:59:26;;;;;;;;;;;29.30;50.90;;;;;;5115313;27;19924;-58
2021/06/30 10:02:13;;;;;;;;;;;29.40;50.90;;;;;;5131186;27;19930;-58
2021/06/30 10:04:41;;;;;;;;;;;29.40;50.80;;;;;;5131514;27;19972;-57
2021/06/30 10:07:15;;;;;;;;;;;29.50;50.70;;;;;;5131780;27;20013;-57
2021/06/30 10:09:48;;;;;;;;;;;29.50;50.60;;;;;;5132704;27;19930;-58
2021/06/30 10:12:17;;;;;;;;;;;29.60;50.50;;;;;;5130915;27;19928;-58
2021/06/30 10:14:45;;;;;;;;;;;29.60;50.40;;;;;;5131330;27;20287;-58
2021/06/30 10:17:13;;;;;;;;;;;29.70;50.30;;;;;;5129778;27;19923;-58
2021/06/30 10:19:42;;;;;;;;;;;29.70;50.30;;;;;;5132138;27;20382;-58
2021/06/30 10:22:20;;;;;;;;;;;29.80;50.20;;;;;;5117090;27;19923;-58
2021/06/30 10:24:47;;;;;;;;;;;29.80;50.00;;;;;;5129856;28;19927;-58
2021/06/30 10:27:15;;;;;;;;;;;29.80;49.90;;;;;;5131663;27;19943;-58
2021/06/30 10:29:43;;;;;;;;;;;29.90;49.90;;;;;;5130960;28;19927;-58
2021/06/30 10:32:11;;;;;;;;;;;30.00;50.00;;;;;;5132649;28;19969;-58
2021/06/30 10:34:47;;;;;;;;;;;29.90;49.90;;;;;;5132098;28;19924;-58
2021/06/30 10:37:21;;;;;;;;;;;30.00;49.90;;;;;;5126236;28;19924;-58
2021/06/30 10:39:50;;;;;;;;;;;30.00;49.80;;;;;;5131162;28;20006;-58
2021/06/30 10:42:23;;;;;;;;;;;30.10;49.70;;;;;;5114024;28;19927;-58
2021/06/30 10:44:52;;;;;;;;;;;30.10;49.70;;;;;;5123657;28;19923;-58
2021/06/30 10:47:30;;;;;;;;;;;30.00;49.60;;;;;;5123668;28;19923;-58
2021/06/30 10:50:15;;;;;;;;;;;30.00;49.60;;;;;;5122732;28;19923;-58
2021/06/30 10:52:43;;;;;;;;;;;30.00;49.60;;;;;;5116620;28;20293;-58
2021/06/30 10:55:29;;;;;;;;;;;30.00;49.60;;;;;;5114563;28;19924;-58
2021/06/30 10:58:14;;;;;;;;;;;30.00;49.70;;;;;;5116446;28;19924;-58
2021/06/30 11:00:42;;;;;;;;;;;30.00;49.70;;;;;;5128958;28;19923;-58
2021/06/30 11:03:22;;;;;;;;;;;30.00;49.80;;;;;;5115162;28;20294;-58
2021/06/30 11:05:49;;;;;;;;;;;30.00;49.80;;;;;;5130714;28;20448;-58
2021/06/30 11:08:35;;;;;;;;;;;30.00;49.70;;;;;;5131876;28;19927;-58
2021/06/30 11:11:02;;;;;;;;;;;30.00;49.70;;;;;;5130607;28;19971;-58
2021/06/30 11:13:48;;;;;;;;;;;30.00;49.70;;;;;;5130759;28;19977;-58
2021/06/30 11:16:35;;;;;;;;;;;30.00;49.70;;;;;;5131547;28;19976;-58
2021/06/30 11:19:03;;;;;;;;;;;30.00;49.60;;;;;;5130427;28;20307;-58
2021/06/30 11:22:09;;;;;;;;;;;30.00;49.50;;;;;;5129204;28;19927;-58
2021/06/30 11:24:38;;;;;;;;;;;30.10;49.60;;;;;;5028125;28;20011;-58
2021/06/30 11:27:26;;;;;;;;;;;30.00;49.50;;;;;;5029958;28;19975;-58
2021/06/30 11:29:55;;;;;;;;;;;30.00;49.60;;;;;;5028858;28;19925;-58
2021/06/30 11:32:38;;;;;;;;;;;30.00;49.60;;;;;;5011400;28;19926;-58
2021/06/30 11:35:24;;;;;;;;;;;30.00;49.70;;;;;;5028544;28;19925;-58
2021/06/30 11:37:56;;;;;;;;;;;30.00;49.70;;;;;;5029149;28;19948;-58
2021/06/30 11:42:55;;;;;;;;;;;29.90;49.80;;;;;;5029484;28;19925;-58
2021/06/30 11:45:23;;;;;;;;;;;29.90;49.80;;;;;;5013696;28;19925;-58
2021/06/30 11:47:53;;;;;;;;;;;29.90;49.80;;;;;;5031823;28;20433;-58
2021/06/30 11:50:21;;;;;;;;;;;29.90;49.80;;;;;;5031762;28;19976;-58
2021/06/30 11:52:49;;;;;;;;;;;29.90;49.80;;;;;;5032949;28;20435;-58
2021/06/30 11:55:19;;;;;;;;;;;29.90;49.80;;;;;;5081014;27;20006;-58
2021/06/30 11:57:57;;;;;;;;;;;30.00;49.80;;;;;;5135189;27;19930;-58
2021/06/30 12:00:25;;;;;;;;;;;30.00;49.80;;;;;;5134811;27;19924;-58
2021/06/30 12:03:02;;;;;;;;;;;30.00;49.70;;;;;;5134383;27;19924;-58
2021/06/30 12:05:30;;;;;;;;;;;30.00;49.60;;;;;;5134545;27;19959;-58
2021/06/30 12:07:58;;;;;;;;;;;30.00;49.60;;;;;;5136235;27;19977;-58
2021/06/30 12:10:26;;;;;;;;;;;30.00;49.50;;;;;;5133992;27;19924;-57
2021/06/30 12:12:53;;;;;;;;;;;30.00;49.50;;;;;;5134638;27;19999;-58
2021/06/30 12:15:20;;;;;;;;;;;30.10;49.50;;;;;;5134525;27;19927;-58
2021/06/30 12:17:51;;;;;;;;;;;30.10;49.40;;;;;;5132121;27;19969;-58
2021/06/30 12:20:19;;;;;;;;;;;30.20;49.40;;;;;;5133322;27;19927;-58
2021/06/30 12:22:46;;;;;;;;;;;30.10;49.30;;;;;;5133269;27;20310;-58
2021/06/30 12:25:16;;;;;;;;;;;30.10;49.30;;;;;;5117800;27;19927;-58
2021/06/30 12:27:48;;;;;;;;;;;30.20;49.30;;;;;;5123889;27;19928;-58
2021/06/30 12:30:19;;;;;;;;;;;30.10;49.30;;;;;;5117363;27;19931;-58
2021/06/30 12:32:51;;;;;;;;;;;30.10;49.30;;;;;;5128122;27;19949;-58
2021/06/30 12:35:26;;;;;;;;;;;30.00;49.20;;;;;;5130197;27;19923;-58
2021/06/30 12:38:04;;;;;;;;;;;30.00;49.30;;;;;;5127936;27;19924;-58
2021/06/30 12:40:46;;;;;;;;;;;30.00;49.30;;;;;;5132994;27;20316;-58
2021/06/30 12:43:16;;;;;;;;;;;30.00;49.40;;;;;;5120511;27;19927;-58
2021/06/30 12:45:45;;;;;;;;;;;29.90;49.40;;;;;;5129232;27;19947;-58
2021/06/30 12:48:13;;;;;;;;;;;29.90;49.60;;;;;;5131501;27;20011;-58
2021/06/30 12:50:44;;;;;;;;;;;29.80;49.70;;;;;;5133117;27;19924;-58
2021/06/30 12:53:12;;;;;;;;;;;29.70;49.80;;;;;;5133701;27;19923;-58
2021/06/30 12:55:57;;;;;;;;;;;29.70;50.00;;;;;;5133506;27;19924;-58
2021/06/30 12:58:44;;;;;;;;;;;29.60;50.10;;;;;;5116670;27;20375;-58
2021/06/30 13:01:14;;;;;;;;;;;29.60;50.30;;;;;;5130895;27;19963;-58
2021/06/30 13:03:42;;;;;;;;;;;29.50;50.30;;;;;;5131275;27;19946;-58
2021/06/30 13:06:16;;;;;;;;;;;29.50;50.50;;;;;;5131702;27;20462;-58
2021/06/30 13:08:44;;;;;;;;;;;29.50;50.50;;;;;;5132236;27;20361;-57
2021/06/30 13:11:21;;;;;;;;;;;29.40;50.50;;;;;;5130923;27;19924;-58
2021/06/30 13:14:00;;;;;;;;;;;29.40;50.50;;;;;;5131106;27;20366;-58
2021/06/30 13:16:28;;;;;;;;;;;29.40;50.50;;;;;;5132282;27;20432;-58
2021/06/30 13:18:57;;;;;;;;;;;29.40;50.50;;;;;;5131200;27;19924;-58
2021/06/30 13:21:25;;;;;;;;;;;29.40;50.60;;;;;;5134690;27;19988;-58
2021/06/30 13:29:33;;;;;;;;;;;29.30;50.40;;;;;;5125881;27;19972;-58
2021/06/30 13:35:14;;;;;;;;;;;29.40;50.50;;;;;;5070638;28;19935;-58
2021/06/30 13:37:41;;;;;;;;;;;29.30;50.50;;;;;;5068096;28;20308;-59
2021/06/30 13:40:09;;;;;;;;;;;29.30;50.60;;;;;;5068490;28;19928;-58
2021/06/30 13:42:36;;;;;;;;;;;29.30;50.60;;;;;;5068675;28;19936;-58
2021/06/30 13:45:05;;;;;;;;;;;29.30;50.70;;;;;;5070511;28;19925;-58
2021/06/30 13:47:32;;;;;;;;;;;29.20;50.60;;;;;;5066947;28;19931;-58
2021/06/30 13:49:59;;;;;;;;;;;29.30;50.70;;;;;;5058340;28;19933;-59
2021/06/30 13:52:26;;;;;;;;;;;29.20;50.70;;;;;;5061998;28;20328;-58
2021/06/30 13:54:54;;;;;;;;;;;29.20;50.60;;;;;;5066791;28;19978;-58
2021/06/30 13:57:21;;;;;;;;;;;29.20;50.60;;;;;;5066946;28;19946;-59
2021/06/30 13:59:48;;;;;;;;;;;29.20;50.70;;;;;;5069403;28;19928;-59
2021/06/30 14:02:15;;;;;;;;;;;29.20;51.10;;;;;;5066139;28;19925;-58
2021/06/30 14:04:42;;;;;;;;;;;29.20;51.00;;;;;;5059783;28;19925;-58
2021/06/30 14:07:10;;;;;;;;;;;29.20;51.10;;;;;;5068287;28;20027;-57
2021/06/30 14:09:37;;;;;;;;;;;29.10;51.00;;;;;;5114672;27;19927;-58
2021/06/30 14:12:04;;;;;;;;;;;29.10;51.00;;;;;;5133942;27;19928;-59
2021/06/30 14:14:31;;;;;;;;;;;29.10;51.10;;;;;;5130243;27;19931;-58
2021/06/30 14:16:58;;;;;;;;;;;29.10;51.20;;;;;;5112547;28;20355;-59
2021/06/30 14:19:25;;;;;;;;;;;29.10;51.20;;;;;;5116872;27;19923;-59
2021/06/30 14:21:52;;;;;;;;;;;29.00;51.20;;;;;;5114330;28;19923;-58
2021/06/30 14:24:19;;;;;;;;;;;29.00;51.30;;;;;;5114474;28;20117;-58
2021/06/30 14:26:46;;;;;;;;;;;29.00;51.30;;;;;;5132209;27;19976;-59
2021/06/30 14:29:13;;;;;;;;;;;29.00;51.40;;;;;;5127902;28;19937;-59
2021/06/30 14:31:40;;;;;;;;;;;29.00;51.40;;;;;;5133063;28;19923;-59
2021/06/30 14:34:07;;;;;;;;;;;29.00;51.40;;;;;;5097560;28;19923;-58
2021/06/30 14:36:34;;;;;;;;;;;29.00;51.50;;;;;;5111190;28;20236;-58
2021/06/30 14:39:03;;;;;;;;;;;28.90;51.40;;;;;;5133183;28;20011;-59
2021/06/30 14:41:30;;;;;;;;;;;29.00;51.50;;;;;;5132157;28;19992;-59
2021/06/30 14:43:57;;;;;;;;;;;29.00;51.60;;;;;;5131923;28;19923;-58
2021/06/30 14:46:24;;;;;;;;;;;28.90;51.50;;;;;;5130689;28;19923;-59
2021/06/30 14:48:51;;;;;;;;;;;28.90;51.50;;;;;;5130730;28;19974;-59
2021/06/30 14:51:18;;;;;;;;;;;28.90;51.50;;;;;;5130507;28;19938;-59
2021/06/30 14:53:45;;;;;;;;;;;28.90;51.50;;;;;;5132112;28;19924;-58
2021/06/30 14:56:12;;;;;;;;;;;28.90;51.60;;;;;;5129878;28;19927;-58